Latest Weather Observations for Nuriootpa

IDS60901

Issued at 8:11 pm CDT Saturday 25 March 2017 (issued every 10 minutes, with the page automatically refreshed every 10 minutes)

About weather observations | Map of Adelaide area stations | Latest observations for Adelaide area | Other Formats
Station Details ID: 023373 Name: NURIOOTPA PIRSA Lat: -34.48 Lon: 139.01 Height: 275.0 m
Data from the previous 72 hours. | See also: Recent months at Nuriootpa
Date/Time
CDT
Temp
°C
App
Temp
°C
Dew
Point
°C
Rel
Hum
%
Delta-T
°C
Wind Press
QNH
hPa
Press
MSL
hPa
Rain since
9am
mm
Dir  Spd
km/h
Gust
km/h
Spd
kts
Gust
kts
25/08:00pm 22.3 24.0 18.0 76 2.7 N 6 7 3 4 1014.1 1013.3 0.0
25/07:30pm 22.9 24.3 17.8 73 3.2 WSW 7 11 4 6 1014.6 1013.8 0.0
25/07:00pm 23.5 24.7 17.3 68 3.9 WSW 7 13 4 7 1014.3 1013.5 0.0
25/06:30pm 24.0 24.3 16.9 64 4.4 W 11 19 6 10 1013.9 1013.1 0.0
25/06:00pm 25.0 24.6 15.3 55 5.9 WSW 11 17 6 9 1013.8 1013.0 0.0
25/05:30pm 25.2 24.3 14.8 52 6.3 WSW 13 19 7 10 1013.8 1013.0 0.0
25/05:00pm 25.6 24.6 14.7 51 6.6 WSW 13 19 7 10 1013.6 1012.8 0.0
25/04:30pm 25.9 25.0 14.9 50 6.7 WSW 13 20 7 11 1013.8 1013.0 0.0
25/04:00pm 25.8 24.4 13.3 46 7.4 WSW 13 17 7 9 1013.7 1012.9 0.0
25/03:30pm 26.2 25.6 13.6 45 7.5 SW 9 17 5 9 1013.8 1013.0 0.0
25/03:00pm 25.6 24.9 13.3 46 7.3 SW 9 15 5 8 1013.8 1013.0 0.0
25/02:30pm 25.3 24.0 12.4 44 7.5 SW 11 15 6 8 1013.9 1013.1 0.0
25/02:00pm 25.0 23.2 12.2 44 7.4 WSW 13 20 7 11 1014.4 1013.6 0.0
25/01:30pm 24.4 23.3 14.4 53 6.0 SW 13 19 7 10 1014.6 1013.8 0.0
25/01:00pm 24.6 23.4 15.0 55 5.8 SW 15 20 8 11 1014.9 1014.1 0.0
25/12:30pm 24.6 24.0 15.6 57 5.5 WSW 13 19 7 10 1015.0 1014.2 0.0
25/12:00pm 24.1 22.9 15.0 56 5.5 SW 15 20 8 11 1015.0 1014.2 0.0
25/11:30am 23.8 21.9 14.2 55 5.7 WSW 17 24 9 13 1015.3 1014.5 0.0
25/11:00am 24.1 22.0 13.6 52 6.2 WSW 17 24 9 13 1015.2 1014.4 0.0
25/10:30am 23.8 22.9 13.8 53 5.9 WSW 11 15 6 8 1014.5 1013.7 0.0
25/10:00am 22.9 22.4 13.7 56 5.4 W 9 13 5 7 1014.6 1013.8 0.0
25/09:30am 23.0 21.9 13.2 54 5.7 W 11 15 6 8 1014.6 1013.8 0.0
25/09:00am 20.8 20.5 13.4 62 4.3 WSW 7 9 4 5 1014.3 1013.5 0.0
25/08:30am 18.5 19.8 14.0 75 2.6 CALM 0 0 0 0 1014.0 1013.2 0.0
25/08:00am 14.7 15.7 13.1 90 0.9 CALM 0 0 0 0 1013.6 1012.8 0.0
25/07:30am 14.5 14.7 12.9 90 0.9 NE 4 9 2 5 1013.4 1012.6 0.0
25/07:00am 14.3 15.2 12.9 91 0.8 CALM 0 4 0 2 1013.1 1012.3 0.0
25/06:30am 14.7 14.5 13.1 90 0.9 SE 6 7 3 4 1012.9 1012.1 0.0
25/06:00am 14.9 15.9 13.1 89 1.0 CALM 0 0 0 0 1012.7 1011.9 0.0
25/05:30am 14.9 14.7 12.9 88 1.1 NE 6 7 3 4 1012.4 1011.6 0.0
25/05:00am 15.1 15.7 13.0 87 1.2 NNE 2 6 1 3 1012.3 1011.5 0.0
25/04:30am 15.7 15.5 13.6 87 1.2 NE 7 9 4 5 1012.2 1011.4 0.0
25/04:00am 16.0 15.8 13.5 85 1.4 E 7 9 4 5 1012.3 1011.5 0.0
25/03:30am 15.7 15.4 13.2 85 1.4 WSW 7 9 4 5 1012.7 1011.9 0.0
25/03:00am 16.2 16.3 13.8 86 1.4 E 6 7 3 4 1012.5 1011.7 0.0
25/02:30am 16.5 16.8 13.3 81 1.8 N 4 6 2 3 1012.7 1011.9 0.0
25/02:00am 17.8 17.7 13.8 77 2.3 NNE 7 9 4 5 1012.7 1011.9 0.0
25/01:30am 18.6 18.8 14.1 75 2.6 NNE 6 9 3 5 1012.7 1011.9 0.0
25/01:00am 19.5 19.0 13.8 69 3.3 NE 9 11 5 6 1013.0 1012.2 0.0
25/12:30am 19.6 19.0 13.6 68 3.5 NE 9 13 5 7 1013.2 1012.4 0.0
25/12:00am 20.2 20.0 13.5 65 3.9 N 7 11 4 6 1013.5 1012.7 0.0
 
Date/Time
CDT
Temp
°C
App
Temp
°C
Dew
Point
°C
Rel
Hum
%
Delta-T
°C
Wind Press
QNH
hPa
Press
MSL
hPa
Rain since
9am
mm
Dir  Spd
km/h
Gust
km/h
Spd
kts
Gust
kts
24/11:30pm 18.9 19.7 13.7 72 3.0 ENE 2 9 1 5 1014.0 1013.2 0.0
24/11:00pm 18.8 19.8 14.4 75 2.6 NE 2 7 1 4 1013.9 1013.1 0.0
24/10:30pm 19.3 19.5 14.2 72 3.0 ENE 6 7 3 4 1013.7 1012.9 0.0
24/10:00pm 19.9 21.1 13.9 68 3.5 CALM 0 6 0 3 1014.0 1013.2 0.0
24/09:30pm 20.9 20.4 13.9 64 4.1 E 9 11 5 6 1013.9 1013.1 0.0
24/09:00pm 21.8 23.2 14.4 63 4.4 CALM 0 4 0 2 1013.7 1012.9 0.0
24/08:30pm 23.2 23.0 13.5 54 5.7 SSW 7 9 4 5 1013.6 1012.8 0.0
24/08:00pm 23.6 23.3 13.2 52 6.1 WSW 7 9 4 5 1013.2 1012.4 0.0
24/07:30pm 25.7 24.6 12.1 42 7.9 WSW 9 13 5 7 1013.1 1012.3 0.0
24/07:00pm 27.3 26.6 12.1 39 8.9 SW 7 11 4 6 1012.7 1011.9 0.0
24/06:30pm 29.1 26.4 10.5 31 10.7 SW 15 20 8 11 1012.8 1012.0 0.0
24/06:00pm 29.8 27.2 10.8 30 11.0 SSW 15 22 8 12 1012.7 1011.9 0.0
24/05:30pm 29.9 27.2 11.7 32 10.7 WSW 17 22 9 12 1012.6 1011.8 0.0
24/05:00pm 30.5 27.4 12.1 32 10.9 WSW 20 30 11 16 1012.7 1011.9 0.0
24/04:30pm 30.6 30.3 13.4 35 10.4 N 7 13 4 7 1012.5 1011.7 0.0
24/04:00pm 30.6 29.7 12.5 33 10.8 NNE 9 19 5 10 1012.7 1011.9 0.0
24/03:30pm 30.2 28.8 13.3 35 10.2 NE 13 17 7 9 1012.7 1011.9 0.0
24/03:00pm 29.3 28.0 13.6 38 9.5 NNW 13 20 7 11 1013.0 1012.2 0.0
24/02:30pm 29.1 27.7 13.3 37 9.5 NE 13 17 7 9 1013.4 1012.6 0.0
24/02:00pm 28.4 26.9 14.2 41 8.6 NE 15 19 8 10 1013.7 1012.9 0.0
24/01:30pm 27.8 26.3 14.3 43 8.2 NE 15 20 8 11 1014.1 1013.3 0.0
24/01:00pm 27.6 26.5 14.4 44 8.0 NE 13 24 7 13 1014.9 1014.1 0.0
24/12:30pm 27.1 25.0 14.6 46 7.6 NE 19 28 10 15 1015.0 1014.2 0.0
24/12:00pm 25.5 23.3 15.0 52 6.4 NE 20 30 11 16 1015.0 1014.2 0.0
24/11:30am 25.0 23.0 14.9 53 6.1 NE 19 26 10 14 1015.6 1014.8 0.0
24/11:00am 23.4 22.4 14.7 58 5.2 NE 13 20 7 11 1016.3 1015.5 0.0
24/10:30am 23.2 21.9 14.7 58 5.1 NE 15 20 8 11 1016.2 1015.4 0.0
24/10:00am 22.4 20.7 14.7 61 4.6 ENE 17 22 9 12 1016.0 1015.2 0.0
24/09:30am 21.8 19.4 14.4 63 4.4 ENE 20 28 11 15 1016.2 1015.4 0.0
24/09:00am 20.7 19.6 14.4 67 3.7 ENE 13 22 7 12 1016.3 1015.5 0.0
24/08:30am 19.7 18.9 13.9 69 3.4 ENE 11 19 6 10 1016.2 1015.4 0.0
24/08:00am 18.7 18.2 13.9 73 2.8 ENE 9 15 5 8 1016.0 1015.2 0.0
24/07:30am 18.6 18.1 13.8 73 2.8 E 9 17 5 9 1016.2 1015.4 0.0
24/07:00am 18.8 17.5 13.6 72 3.0 E 13 19 7 10 1015.7 1014.9 0.0
24/06:30am 18.7 17.8 13.7 72 2.9 E 11 19 6 10 1015.9 1015.1 0.0
24/06:00am 18.3 17.2 13.2 72 2.9 E 11 17 6 9 1015.4 1014.6 0.0
24/05:30am 18.5 17.4 13.1 71 3.1 E 11 19 6 10 1015.3 1014.5 0.0
24/05:00am 18.3 17.1 12.8 70 3.1 E 11 15 6 8 1015.5 1014.7 0.0
24/04:30am 18.9 17.2 12.5 66 3.6 E 13 19 7 10 1015.4 1014.6 0.0
24/04:00am 18.6 17.3 12.6 68 3.4 E 11 13 6 7 1015.6 1014.8 0.0
24/03:30am 18.9 16.9 12.7 67 3.5 ESE 15 20 8 11 1015.6 1014.8 0.0
24/03:00am 19.4 18.2 12.9 66 3.7 E 11 17 6 9 1016.0 1015.2 0.0
24/02:30am 19.0 18.0 13.4 70 3.2 E 11 17 6 9 1016.2 1015.4 0.0
24/02:00am 18.9 17.5 13.5 71 3.1 ESE 13 17 7 9 1016.4 1015.6 0.0
24/01:30am 18.8 17.5 13.6 72 3.0 ESE 13 17 7 9 1016.5 1015.7 0.0
24/01:00am 18.9 18.0 13.7 72 3.0 ESE 11 19 6 10 1016.7 1015.9 0.0
24/12:30am 18.5 18.3 13.6 73 2.8 E 7 11 4 6 1016.8 1016.0 0.0
24/12:00am 18.0 18.1 13.8 76 2.4 NE 6 7 3 4 1017.0 1016.2 0.0
 
Date/Time
CDT
Temp
°C
App
Temp
°C
Dew
Point
°C
Rel
Hum
%
Delta-T
°C
Wind Press
QNH
hPa
Press
MSL
hPa
Rain since
9am
mm
Dir  Spd
km/h
Gust
km/h
Spd
kts
Gust
kts
23/11:30pm 18.6 19.4 13.7 73 2.8 ENE 2 6 1 3 1017.2 1016.4 0.0
23/11:00pm 18.7 18.8 13.9 73 2.8 NE 6 7 3 4 1017.1 1016.3 0.0
23/10:30pm 19.6 19.1 13.7 68 3.4 ESE 9 15 5 8 1017.2 1016.4 0.0
23/10:00pm 20.2 18.5 13.7 66 3.8 SE 15 19 8 10 1016.9 1016.1 0.0
23/09:30pm 20.4 19.5 13.7 65 3.9 SE 11 17 6 9 1016.8 1016.0 0.0
23/09:00pm 21.0 19.3 13.6 62 4.3 SE 15 20 8 11 1016.6 1015.8 0.0
23/08:30pm 21.7 20.0 13.5 59 4.8 SE 15 20 8 11 1016.2 1015.4 0.0
23/08:00pm 22.3 21.7 13.4 57 5.2 SE 9 13 5 7 1015.9 1015.1 0.0
23/07:30pm 23.8 22.3 13.2 51 6.2 SE 13 19 7 10 1015.6 1014.8 0.0
23/07:00pm 25.5 23.2 11.8 42 7.9 ESE 15 24 8 13 1015.4 1014.6 0.0
23/06:30pm 26.3 23.6 11.8 40 8.4 ESE 17 26 9 14 1015.4 1014.6 0.0
23/06:00pm 26.8 24.2 12.0 39 8.6 E 17 28 9 15 1015.3 1014.5 0.0
23/05:30pm 27.0 24.4 12.1 39 8.7 ESE 17 30 9 16 1015.1 1014.3 0.0
23/05:00pm 26.8 24.2 12.0 39 8.6 ESE 17 24 9 13 1015.4 1014.6 0.0
23/04:30pm 26.8 24.3 12.3 40 8.5 ESE 17 26 9 14 1015.3 1014.5 0.0
23/04:00pm 26.6 23.7 12.2 40 8.4 ESE 19 24 10 13 1015.5 1014.7 0.0
23/03:30pm 26.2 23.3 12.3 42 8.1 SE 19 32 10 17 1015.6 1014.8 0.0
23/03:00pm 25.6 22.7 12.4 43 7.7 ESE 19 28 10 15 1015.8 1015.0 0.0
23/02:30pm 25.2 22.3 12.3 44 7.5 ESE 19 32 10 17 1015.9 1015.1 0.0
23/02:00pm 24.3 21.3 12.4 47 6.9 ESE 20 30 11 16 1016.4 1015.6 0.0
23/01:30pm 24.2 21.8 12.7 48 6.7 ESE 17 26 9 14 1016.8 1016.0 0.0
23/01:00pm 23.9 21.9 12.7 49 6.5 SE 15 24 8 13 1017.6 1016.9 0.0
23/12:30pm 23.0 20.5 12.4 51 6.1 SE 17 28 9 15 1018.1 1017.3 0.0
23/12:00pm 22.3 20.3 12.8 55 5.5 ESE 15 20 8 11 1018.5 1017.7 0.0
23/11:30am 20.7 18.8 12.9 61 4.5 ESE 15 20 8 11 1018.8 1018.0 0.0
23/11:00am 19.6 17.6 12.8 65 3.9 ESE 15 24 8 13 1018.8 1018.0 0.0
23/10:30am 19.0 17.0 12.6 66 3.6 ESE 15 20 8 11 1018.7 1017.9 0.0
23/10:00am 19.3 17.9 13.4 68 3.4 ESE 13 19 7 10 1018.9 1018.1 0.0
23/09:30am 18.1 16.6 13.0 72 2.9 ESE 13 22 7 12 1019.0 1018.2 0.0
23/09:00am 17.2 16.1 13.1 77 2.3 ESE 11 17 6 9 1018.7 1017.9 0.0
23/08:30am 16.1 15.4 13.1 82 1.7 SE 9 13 5 7 1018.7 1017.9 0.0
23/08:00am 15.4 14.7 13.1 86 1.3 ESE 9 15 5 8 1018.4 1017.6 0.0
23/07:30am 14.4 13.6 12.8 90 0.9 ESE 9 17 5 9 1018.1 1017.3 0.0
23/07:00am 14.4 12.8 12.8 90 0.9 ESE 13 19 7 10 1017.5 1016.8 0.0
23/06:30am 14.4 13.2 12.8 90 0.9 E 11 20 6 11 1017.4 1016.7 0.0
23/06:00am 14.7 12.4 13.1 90 0.9 ESE 17 30 9 16 1017.2 1016.4 0.0
23/05:30am 14.8 13.3 13.2 90 0.9 ESE 13 20 7 11 1017.1 1016.3 0.0
23/05:00am 15.0 13.9 13.2 89 1.0 SSE 11 17 6 9 1017.6 1016.9 0.0
23/04:30am 14.9 13.9 13.5 91 0.8 SSE 11 17 6 9 1017.7 1017.0 0.0
23/04:00am 15.0 13.6 13.4 90 0.9 SE 13 22 7 12 1017.5 1016.8 0.0
23/03:30am 15.1 12.9 13.3 89 1.0 SE 17 22 9 12 1017.1 1016.3 0.0
23/03:00am 15.1 13.3 13.3 89 1.0 SE 15 24 8 13 1017.2 1016.4 0.0
23/02:30am 15.3 12.7 13.3 88 1.1 SE 19 26 10 14 1017.3 1016.5 0.0
23/02:00am 15.6 13.8 13.3 86 1.3 SE 15 24 8 13 1017.4 1016.7 0.0
23/01:30am 15.8 13.1 13.5 86 1.3 SE 20 30 11 16 1017.6 1016.9 0.0
23/01:00am 16.1 13.6 13.5 84 1.5 SE 19 32 10 17 1017.8 1017.1 0.0
23/12:30am 16.6 13.9 13.4 81 1.8 SE 20 33 11 18 1018.3 1017.5 0.0
23/12:00am 16.9 13.7 13.2 79 2.1 SE 22 33 12 18 1018.3 1017.5 0.0
 
Date/Time
CDT
Temp
°C
App
Temp
°C
Dew
Point
°C
Rel
Hum
%
Delta-T
°C
Wind Press
QNH
hPa
Press
MSL
hPa
Rain since
9am
mm
Dir  Spd
km/h
Gust
km/h
Spd
kts
Gust
kts
22/11:30pm 17.2 14.6 13.1 77 2.3 SE 19 30 10 16 1018.1 1017.3 0.0
22/11:00pm 17.5 15.3 13.3 76 2.4 SE 17 26 9 14 1018.2 1017.4 0.0
22/10:30pm 17.7 15.1 13.7 77 2.3 SE 20 32 11 17 1018.1 1017.3 0.0
22/10:00pm 17.9 15.9 13.9 77 2.3 SE 17 30 9 16 1018.1 1017.3 0.0
22/09:30pm 17.7 16.5 13.9 78 2.2 SSE 13 20 7 11 1018.1 1017.3 0.0
22/09:00pm 18.4 17.2 13.9 75 2.6 SSE 13 20 7 11 1018.1 1017.3 0.0
22/08:30pm 19.0 17.4 13.8 72 3.0 SSE 15 22 8 12 1017.7 1017.0 0.0

Latest Capital City Observations: Canberra | Sydney | Melbourne | Brisbane | Adelaide | Perth | Hobart | Darwin

Other Formats:

Comma delimited format used in spreadsheet applications
http://www.bom.gov.au/fwo/IDS60901/IDS60901.94681.axf

JavaScript Object Notation format (JSON) in row-major order
http://www.bom.gov.au/fwo/IDS60901/IDS60901.94681.json